Latest Weather Observations for Milingimbi

IDD60801

Issued at 10:11 pm CST Sunday 21 July 2019 (issued every 10 minutes, with the page automatically refreshed every 10 minutes)

About weather observations | Map of weather stations | Latest weather observations for NT | Other Formats
Station Details ID: 014404 Name: MILINGIMBI AIRPORT Lat: -12.09 Lon: 134.89 Height: 15.0 m
Data from the previous 72 hours. | See also: Recent months at Milingimbi
Date/Time
CST
Temp
°C
App
Temp
°C
Dew
Point
°C
Rel
Hum
%
Delta-T
°C
Wind Press
QNH
hPa
Press
MSL
hPa
Rain since
9am
mm
Dir  Spd
km/h
Gust
km/h
Spd
kts
Gust
kts
21/10:00pm 22.6 24.1 19.0 80 2.3 E 9 17 5 9 1013.6 1013.5 0.0
21/09:30pm 21.5 23.2 18.5 83 1.9 ENE 7 9 4 5 1013.2 1013.1 0.0
21/09:00pm 21.9 23.8 18.5 81 2.1 NE 6 7 3 4 1012.9 1012.8 0.0
21/08:30pm 22.0 23.8 18.8 82 2.0 ENE 7 9 4 5 1012.7 1012.6 0.0
21/08:00pm 22.0 23.8 18.2 79 2.4 NE 6 7 3 4 1012.4 1012.3 0.0
21/07:30pm 22.4 24.2 18.4 78 2.5 NE 6 9 3 5 1012.1 1012.0 0.0
21/07:00pm 22.9 24.7 18.2 75 2.9 NE 6 9 3 5 1011.8 1011.7 0.0
21/06:30pm 23.7 25.4 18.6 73 3.2 NNE 7 15 4 8 1011.6 1011.5 0.0
21/06:00pm 24.4 25.6 18.3 69 3.8 NNE 9 15 5 8 1011.5 1011.4 0.0
21/05:30pm 25.6 26.8 18.3 64 4.6 NNE 9 13 5 7 1011.2 1011.1 0.0
21/05:00pm 26.2 27.4 18.3 61 5.0 NNE 9 17 5 9 1010.9 1010.8 0.0
21/04:30pm 27.1 27.3 17.6 56 6.0 NE 13 20 7 11 1010.9 1010.8 0.0
21/04:00pm 28.1 26.8 13.6 41 8.6 NE 13 22 7 12 1010.7 1010.6 0.0
21/03:30pm 28.2 26.0 13.3 40 8.8 ENE 17 26 9 14 1010.9 1010.8 0.0
21/03:00pm 28.3 26.1 12.2 37 9.4 NE 15 26 8 14 1011.1 1011.0 0.0
21/02:30pm 27.5 25.5 11.5 37 9.2 NE 13 24 7 13 1011.3 1011.2 0.0
21/02:00pm 28.0 25.8 12.0 37 9.3 NE 15 30 8 16 1011.8 1011.7 0.0
21/01:30pm 28.2 26.6 12.9 38 9.0 ENE 13 20 7 11 1012.3 1012.2 0.0
21/01:00pm 28.4 25.9 11.0 34 9.9 E 15 22 8 12 1012.8 1012.7 0.0
21/12:30pm 28.0 25.5 11.1 35 9.6 ESE 15 24 8 13 1013.2 1013.1 0.0
21/12:00pm 28.7 26.4 13.0 38 9.3 SE 17 26 9 14 1013.8 1013.7 0.0
21/11:30am 27.6 25.0 13.2 41 8.5 SE 19 28 10 15 1014.4 1014.3 0.0
21/11:00am 26.8 24.8 13.9 45 7.7 SE 17 26 9 14 1014.7 1014.6 0.0
21/10:30am 25.4 23.7 14.8 52 6.3 ESE 17 26 9 14 1014.8 1014.7 0.0
21/10:00am 24.2 23.7 17.0 64 4.4 ESE 15 24 8 13 1015.0 1014.9 0.0
21/09:30am 22.6 22.3 18.2 76 2.8 ESE 17 26 9 14 1015.1 1015.0 0.0
21/09:00am 22.4 22.4 18.2 77 2.6 ESE 15 26 8 14 1015.1 1015.0 0.0
21/08:30am 20.7 21.3 18.5 87 1.4 SE 13 20 7 11 1014.9 1014.8 0.0
21/08:00am 19.9 20.6 18.0 89 1.2 SE 11 17 6 9 1014.7 1014.6 0.0
21/07:30am 19.1 20.2 17.9 93 0.7 SE 9 15 5 8 1014.5 1014.4 0.0
21/07:00am 18.5 19.6 17.2 92 0.8 ESE 7 11 4 6 1014.1 1014.0 0.0
21/06:30am 18.6 19.3 17.1 91 0.9 ESE 9 11 5 6 1013.9 1013.8 0.0
21/06:00am 19.1 19.6 17.4 90 1.0 SE 11 17 6 9 1013.8 1013.7 0.0
21/05:30am 19.6 20.3 17.9 90 1.0 ESE 11 15 6 8 1013.5 1013.4 0.0
21/05:00am 20.0 20.5 18.3 90 1.1 ESE 13 20 7 11 1013.5 1013.4 0.0
21/04:30am 20.2 20.7 18.3 89 1.2 ESE 13 20 7 11 1013.7 1013.6 0.0
21/04:00am 20.5 20.6 18.4 88 1.3 ESE 15 20 8 11 1013.7 1013.6 0.0
21/03:30am 20.6 20.8 18.5 88 1.3 ESE 15 22 8 12 1013.7 1013.6 0.0
21/03:00am 20.9 21.1 18.5 86 1.5 ESE 15 26 8 14 1014.0 1013.9 0.0
21/02:30am 21.1 20.9 18.5 85 1.6 ESE 17 24 9 13 1014.1 1014.0 0.0
21/02:00am 21.4 21.5 18.4 83 1.9 ESE 15 22 8 12 1014.1 1014.0 0.0
21/01:30am 21.6 21.4 18.4 82 2.0 ESE 17 24 9 13 1014.2 1014.1 0.0
21/01:00am 21.6 22.0 18.2 81 2.1 ESE 13 20 7 11 1014.4 1014.3 0.0
21/12:30am 21.8 22.2 18.2 80 2.2 ESE 13 20 7 11 1014.4 1014.3 0.0
21/12:00am 22.0 22.0 18.0 78 2.5 ESE 15 22 8 12 1014.5 1014.4 0.0
 
Date/Time
CST
Temp
°C
App
Temp
°C
Dew
Point
°C
Rel
Hum
%
Delta-T
°C
Wind Press
QNH
hPa
Press
MSL
hPa
Rain since
9am
mm
Dir  Spd
km/h
Gust
km/h
Spd
kts
Gust
kts
20/11:30pm 22.4 22.5 17.5 74 3.0 ESE 13 20 7 11 1014.5 1014.4 0.0
20/11:00pm 22.7 22.8 17.4 72 3.3 ESE 13 20 7 11 1014.6 1014.5 0.0
20/10:30pm 23.3 23.1 17.5 70 3.6 E 15 22 8 12 1014.5 1014.4 0.0
20/10:00pm 23.5 23.9 17.3 68 3.8 E 11 19 6 10 1014.4 1014.3 0.0
20/09:30pm 23.5 25.0 19.0 76 2.9 E 9 17 5 9 1014.2 1014.1 0.0
20/09:00pm 23.6 25.4 19.5 78 2.6 E 9 13 5 7 1014.1 1014.0 0.0
20/08:30pm 23.8 26.0 19.7 78 2.6 ENE 7 11 4 6 1013.9 1013.8 0.0
20/08:00pm 24.0 25.6 19.1 74 3.1 NE 9 15 5 8 1013.7 1013.6 0.0
20/07:30pm 23.1 25.1 17.8 72 3.3 NNE 4 11 2 6 1013.4 1013.3 0.0
20/07:00pm 24.1 26.3 18.3 70 3.7 N 4 7 2 4 1013.1 1013.0 0.0
20/06:30pm 25.0 26.8 18.2 66 4.3 NNE 6 9 3 5 1012.8 1012.7 0.0
20/06:00pm 25.9 27.7 18.3 63 4.8 NE 6 9 3 5 1012.7 1012.6 0.0
20/05:30pm 26.9 27.4 17.4 56 6.0 NE 11 20 6 11 1012.6 1012.5 0.0
20/05:00pm 27.9 27.5 16.2 49 7.2 NE 13 20 7 11 1012.5 1012.4 0.0
20/04:30pm 28.4 28.2 16.7 49 7.3 ENE 13 26 7 14 1012.3 1012.2 0.0
20/04:00pm 29.1 28.3 17.0 48 7.6 ENE 17 28 9 15 1012.3 1012.2 0.0
20/03:30pm 28.9 28.4 16.8 48 7.6 ENE 15 26 8 14 1012.4 1012.3 0.0
20/03:00pm 28.5 27.2 15.8 46 7.8 ENE 17 32 9 17 1012.6 1012.5 0.0
20/02:30pm 29.0 27.6 15.5 44 8.3 ENE 17 28 9 15 1013.2 1013.1 0.0
20/02:00pm 29.4 28.0 14.4 40 9.1 ENE 15 26 8 14 1013.6 1013.5 0.0
20/01:30pm 29.8 28.2 14.0 38 9.5 E 15 20 8 11 1014.0 1013.9 0.0
20/01:00pm 29.5 27.3 13.3 37 9.6 E 17 26 9 14 1014.4 1014.3 0.0
20/12:30pm 29.0 26.6 12.8 36 9.5 E 17 28 9 15 1015.1 1015.0 0.0
20/12:00pm 28.5 26.1 12.8 38 9.2 ESE 17 33 9 18 1015.4 1015.3 0.0
20/11:30am 28.7 27.1 13.8 40 8.9 ESE 15 24 8 13 1015.8 1015.7 0.0
20/11:00am 27.1 26.7 16.1 51 6.8 ESE 13 22 7 12 1016.2 1016.1 0.0
20/10:30am 26.2 26.1 17.0 57 5.7 ESE 13 20 7 11 1016.3 1016.2 0.0
20/10:00am 25.1 24.5 17.6 63 4.7 ESE 17 26 9 14 1016.5 1016.4 0.0
20/09:30am 24.1 23.4 17.4 66 4.2 ESE 17 26 9 14 1016.4 1016.3 0.0
20/09:00am 22.7 22.5 17.6 73 3.2 SE 15 20 8 11 1016.4 1016.3 0.0
20/08:30am 21.1 21.9 17.3 79 2.3 SE 9 13 5 7 1016.0 1015.9 0.0
20/08:00am 19.4 20.5 17.2 87 1.3 SSE 7 9 4 5 1015.8 1015.7 0.0
20/07:30am 18.5 19.6 17.0 91 0.9 SSE 7 9 4 5 1015.4 1015.3 0.0
20/07:00am 18.1 18.9 16.4 90 1.0 SSE 7 9 4 5 1015.2 1015.1 0.0
20/06:30am 18.5 18.3 16.8 90 1.0 SE 13 17 7 9 1014.8 1014.7 0.0
20/06:00am 18.7 19.1 17.2 91 0.9 SE 11 17 6 9 1014.8 1014.7 0.0
20/05:30am 18.3 18.4 16.6 90 1.0 SE 11 15 6 8 1014.5 1014.4 0.0
20/05:00am 18.4 18.5 16.4 88 1.2 SSE 11 15 6 8 1014.2 1014.1 0.0
20/04:30am 18.7 19.2 16.5 87 1.3 SSE 9 13 5 7 1014.1 1014.0 0.0
20/04:00am 19.1 19.3 16.7 86 1.4 SE 11 15 6 8 1014.0 1013.9 0.0
20/03:30am 19.4 19.5 16.6 84 1.7 SE 11 15 6 8 1013.9 1013.8 0.0
20/03:00am 19.8 19.3 16.8 83 1.8 SE 15 20 8 11 1014.0 1013.9 0.0
20/02:30am 20.3 20.3 17.1 82 1.9 SSE 13 19 7 10 1014.3 1014.2 0.0
20/02:00am 20.9 21.3 17.3 80 2.2 SE 11 17 6 9 1014.5 1014.4 0.0
20/01:30am 21.5 21.3 17.5 78 2.5 SE 15 26 8 14 1014.6 1014.5 0.0
20/01:00am 21.7 20.6 17.3 76 2.7 ESE 19 28 10 15 1014.9 1014.8 0.0
20/12:30am 22.0 21.3 17.4 75 2.8 ESE 17 35 9 19 1015.1 1015.0 0.0
20/12:00am 22.2 21.5 17.3 74 3.0 ESE 17 28 9 15 1015.1 1015.0 0.0
 
Date/Time
CST
Temp
°C
App
Temp
°C
Dew
Point
°C
Rel
Hum
%
Delta-T
°C
Wind Press
QNH
hPa
Press
MSL
hPa
Rain since
9am
mm
Dir  Spd
km/h
Gust
km/h
Spd
kts
Gust
kts
19/11:30pm 22.6 21.3 16.9 70 3.5 ESE 19 32 10 17 1015.2 1015.1 0.0
19/11:00pm 23.0 22.0 16.5 67 4.0 ESE 17 30 9 16 1015.2 1015.1 0.0
19/10:30pm 23.3 22.5 16.1 64 4.4 ESE 15 24 8 13 1015.1 1015.0 0.0
19/10:00pm 23.8 22.8 16.6 64 4.4 ESE 17 24 9 13 1014.9 1014.8 0.0
19/09:30pm 23.4 23.5 16.4 64 4.3 SE 11 17 6 9 1014.6 1014.5 0.0
19/09:00pm 23.6 23.9 16.9 66 4.1 SE 11 17 6 9 1014.2 1014.1 0.0
19/08:30pm 23.6 25.1 18.0 71 3.5 SE 7 11 4 6 1013.9 1013.8 0.0
19/08:00pm 24.1 26.3 19.6 76 2.9 ESE 7 11 4 6 1013.4 1013.3 0.0
19/07:30pm 24.6 26.6 19.2 72 3.5 E 7 11 4 6 1013.0 1012.9 0.0
19/07:00pm 25.2 26.9 18.6 67 4.2 E 7 13 4 7 1012.7 1012.6 0.0
19/06:30pm 25.9 27.4 18.1 62 4.9 ENE 7 11 4 6 1012.5 1012.4 0.0
19/06:00pm 26.7 28.3 18.3 60 5.3 ENE 7 15 4 8 1012.4 1012.3 0.0
19/05:30pm 27.5 28.3 18.2 57 5.9 ENE 11 19 6 10 1012.5 1012.4 0.0
19/05:00pm 28.7 28.9 17.6 51 7.0 ENE 13 22 7 12 1012.5 1012.4 0.0
19/04:30pm 28.9 29.8 18.4 53 6.7 ENE 11 17 6 9 1012.2 1012.1 0.0
19/04:00pm 28.3 28.6 18.7 56 6.2 NE 15 22 8 12 1012.2 1012.1 0.0
19/03:30pm 29.2 29.7 18.3 51 7.0 ENE 13 20 7 11 1012.2 1012.1 0.0
19/03:00pm 28.6 29.0 19.0 56 6.2 ENE 15 22 8 12 1012.4 1012.3 0.0
19/02:30pm 28.9 29.4 18.4 53 6.7 ENE 13 20 7 11 1012.7 1012.6 0.0
19/02:00pm 30.5 30.2 18.2 47 7.9 ESE 17 30 9 16 1013.0 1012.9 0.0
19/01:30pm 29.5 29.6 18.3 51 7.2 ESE 15 26 8 14 1013.5 1013.4 0.0
19/01:00pm 29.1 28.8 18.2 51 7.0 E 17 28 9 15 1013.9 1013.8 0.0
19/12:30pm 28.5 27.7 18.0 53 6.7 ESE 19 32 10 17 1014.4 1014.3 0.0
19/12:00pm 27.1 26.2 17.8 56 5.9 E 19 30 10 16 1014.8 1014.7 0.0
19/11:30am 27.7 27.2 17.8 54 6.3 ESE 17 26 9 14 1015.0 1014.9 0.0
19/11:00am 28.2 27.7 17.7 53 6.6 ESE 17 24 9 13 1015.3 1015.2 0.0
19/10:30am 27.3 27.3 18.0 56 5.9 ESE 15 22 8 12 1015.5 1015.4 0.0
19/10:00am 25.4 24.8 17.6 62 4.9 ESE 17 24 9 13 1015.7 1015.6 0.0
19/09:30am 24.2 24.1 17.9 68 3.9 SE 15 24 8 13 1015.6 1015.5 0.0
19/09:00am 22.1 21.9 17.7 76 2.7 SE 15 20 8 11 1015.7 1015.6 0.0
19/08:30am 20.1 19.9 17.5 85 1.6 SSE 15 22 8 12 1015.6 1015.5 0.0
19/08:00am 19.1 19.4 17.1 88 1.2 SE 11 19 6 10 1015.2 1015.1 0.0
19/07:30am 18.1 19.3 16.8 92 0.8 SE 6 9 3 5 1014.9 1014.8 0.0
19/07:00am 17.8 18.7 16.7 93 0.7 SSE 7 11 4 6 1014.4 1014.3 0.0
19/06:30am 17.6 16.9 16.3 92 0.8 S 15 19 8 10 1014.2 1014.1 0.0
19/06:00am 17.7 17.7 16.2 91 0.9 SSE 11 15 6 8 1014.4 1014.3 0.0
19/05:30am 17.7 18.0 16.0 90 1.0 SSE 9 13 5 7 1014.3 1014.2 0.0
19/05:00am 17.6 18.0 15.4 87 1.3 SE 7 11 4 6 1014.3 1014.2 0.0
19/04:30am 18.0 18.2 15.8 87 1.3 SSE 9 11 5 6 1014.2 1014.1 0.0
19/04:00am 18.4 18.7 16.0 86 1.4 SSE 9 13 5 7 1014.1 1014.0 0.0
19/03:30am 18.7 19.0 15.9 84 1.7 SE 9 13 5 7 1014.1 1014.0 0.0
19/03:00am 19.1 19.4 16.0 82 1.8 SE 9 15 5 8 1014.2 1014.1 0.0
19/02:30am 19.5 19.5 16.3 82 1.9 SE 11 17 6 9 1014.4 1014.3 0.0
19/02:00am 19.9 19.9 16.2 79 2.2 SSE 11 17 6 9 1014.8 1014.7 0.0
19/01:30am 20.1 19.7 16.3 79 2.3 SSE 13 17 7 9 1014.8 1014.7 0.0
19/01:00am 20.1 20.4 15.9 77 2.5 SE 9 13 5 7 1015.0 1014.9 0.0
19/12:30am 20.4 20.2 15.8 75 2.7 SE 11 15 6 8 1015.0 1014.9 0.0
19/12:00am 20.8 20.3 15.8 73 3.0 SE 13 17 7 9 1015.2 1015.1 0.0
 
Date/Time
CST
Temp
°C
App
Temp
°C
Dew
Point
°C
Rel
Hum
%
Delta-T
°C
Wind Press
QNH
hPa
Press
MSL
hPa
Rain since
9am
mm
Dir  Spd
km/h
Gust
km/h
Spd
kts
Gust
kts
18/11:30pm 21.1 21.0 15.9 72 3.1 SE 11 15 6 8 1015.2 1015.1 0.0
18/11:00pm 21.5 21.0 15.8 70 3.4 SE 13 19 7 10 1014.9 1014.8 0.0
18/10:30pm 21.7 21.4 15.5 68 3.7 SSE 11 15 6 8 1015.0 1014.9 0.0

Other formats

Comma delimited format used in spreadsheet applications
http://www.bom.gov.au/fwo/IDD60801/IDD60801.94140.axf

JavaScript Object Notation format (JSON) in row-major order
http://www.bom.gov.au/fwo/IDD60801/IDD60801.94140.json

Data quality

Most of these data are generated automatically and are frequently updated. Quality checks on data are not normally performed. It is possible for incorrect values to appear. Refer to information at About Latest Weather Observations and please check the disclaimer before using these data.